PWSweather.com
Personal Weather Stations
Station Observations
UISISLE1
Newport, Isle ofWight, ISLE OF WIGHT PO30 2JX

NewportIsle ofWight, ISLE OF WIGHT PO30 2JX

Lat: 50.72, Lon: -1.27

Elevation: 45

Station Type: Davis Vantage Pro Plus

http://www.isleofwightweather.co.uk

High Low Average
Temperature 30.8°F-0.7°C 25.2°F-3.8°C 27.1°F-2.7°C
Dew Point 29.2°F-1.6°C 16.1°F-8.8°C 22.3°F-5.4°C
Winds 18.0 mph 29.0 kmh 7.8 mph 12.6 kmh 12.0 mph E19.3 kmh E
Wind Gusts 31.0 mph49.9 kmh 8.0 mph12.9 kmh 20.0 mph32.2 kmh
Humidity 94% 67% 82%
Pressure 29.75 in1007.5 mb 29.28 in991.5 mb -
Precipitation 0.00 in0.0 mm - -
Hour Temp Dew Point Humidity Winds Wind Gusts Pressure Precip Precip Rate Daily Precip Total
12:00 AM 25.8°F-3.4°C 17.1°F-8.3°C 69% 15.2 mph E24.5 kmh E 24.0 mph38.6 kmh 29.75 in1007.5 mb - 0.00 in0.0 mm 0.00 in0.0 mm
12:15 AM 25.9°F-3.4°C 17.1°F-8.3°C 69% 11.1 mph ENE17.9 kmh ENE 21.0 mph33.8 kmh 29.75 in1007.5 mb - 0.00 in0.0 mm 0.00 in0.0 mm
12:30 AM 25.8°F-3.4°C 17.0°F-8.3°C 69% 13.5 mph NE21.7 kmh NE 20.6 mph33.2 kmh 29.74 in1007.1 mb - 0.00 in0.0 mm 0.00 in0.0 mm
12:45 AM 25.7°F-3.5°C 16.6°F-8.6°C 68% 17.9 mph ENE28.8 kmh ENE 27.0 mph43.5 kmh 29.73 in1006.8 mb - 0.00 in0.0 mm 0.00 in0.0 mm
01:00 AM 25.7°F-3.5°C 16.6°F-8.6°C 68% 10.3 mph ENE16.6 kmh ENE 17.0 mph27.4 kmh 29.73 in1006.8 mb - 0.00 in0.0 mm 0.00 in0.0 mm
01:15 AM 25.7°F-3.5°C 16.6°F-8.6°C 68% 15.8 mph NE25.4 kmh NE 22.7 mph36.5 kmh 29.72 in1006.4 mb - 0.00 in0.0 mm 0.00 in0.0 mm
01:30 AM 25.7°F-3.5°C 16.6°F-8.6°C 68% 12.2 mph ENE19.6 kmh ENE 23.0 mph37.0 kmh 29.72 in1006.4 mb - 0.00 in0.0 mm 0.00 in0.0 mm
01:45 AM 25.7°F-3.5°C 16.6°F-8.6°C 68% 11.2 mph ENE18.0 kmh ENE 16.0 mph25.7 kmh 29.71 in1006.1 mb - 0.00 in0.0 mm 0.00 in0.0 mm
02:00 AM 25.6°F-3.6°C 16.8°F-8.4°C 69% 16.5 mph NE26.6 kmh NE 26.0 mph41.8 kmh 29.70 in1005.8 mb - 0.00 in0.0 mm 0.00 in0.0 mm
02:15 AM 25.5°F-3.6°C 16.8°F-8.4°C 69% 12.6 mph ENE20.3 kmh ENE 31.0 mph49.9 kmh 29.70 in1005.8 mb - 0.00 in0.0 mm 0.00 in0.0 mm
02:30 AM 25.5°F-3.6°C 16.7°F-8.5°C 69% 15.0 mph ENE24.1 kmh ENE 24.0 mph38.6 kmh 29.69 in1005.4 mb - 0.00 in0.0 mm 0.00 in0.0 mm
02:45 AM 25.5°F-3.6°C 16.7°F-8.5°C 69% 9.4 mph NE15.1 kmh NE 18.0 mph29.0 kmh 29.68 in1005.1 mb - 0.00 in0.0 mm 0.00 in0.0 mm
03:00 AM 25.5°F-3.6°C 16.7°F-8.5°C 69% 11.3 mph ENE18.2 kmh ENE 19.0 mph30.6 kmh 29.67 in1004.7 mb - 0.00 in0.0 mm 0.00 in0.0 mm
03:15 AM 25.5°F-3.6°C 16.7°F-8.5°C 69% 11.0 mph NE17.7 kmh NE 22.0 mph35.4 kmh 29.66 in1004.4 mb - 0.00 in0.0 mm 0.00 in0.0 mm
03:30 AM 25.5°F-3.6°C 16.7°F-8.5°C 69% 10.4 mph NE16.7 kmh NE 25.0 mph40.2 kmh 29.65 in1004.1 mb - 0.00 in0.0 mm 0.00 in0.0 mm
03:45 AM 25.6°F-3.6°C 16.1°F-8.8°C 67% 14.1 mph NE22.7 kmh NE 24.0 mph38.6 kmh 29.64 in1003.7 mb - 0.00 in0.0 mm 0.00 in0.0 mm
04:00 AM 25.7°F-3.5°C 16.9°F-8.4°C 69% 16.2 mph E26.1 kmh E 25.0 mph40.2 kmh 29.64 in1003.7 mb - 0.00 in0.0 mm 0.00 in0.0 mm
04:15 AM 25.7°F-3.5°C 17.3°F-8.2°C 70% 10.8 mph ENE17.4 kmh ENE 16.0 mph25.7 kmh 29.64 in1003.7 mb - 0.00 in0.0 mm 0.00 in0.0 mm
04:30 AM 25.6°F-3.6°C 17.5°F-8.1°C 71% 16.2 mph NE26.1 kmh NE 25.0 mph40.2 kmh 29.63 in1003.4 mb - 0.00 in0.0 mm 0.00 in0.0 mm
04:45 AM 25.5°F-3.6°C 18.3°F-7.6°C 74% 10.9 mph ENE17.5 kmh ENE 22.0 mph35.4 kmh 29.63 in1003.4 mb - 0.00 in0.0 mm 0.00 in0.0 mm
05:00 AM 25.2°F-3.8°C 18.7°F-7.4°C 76% 10.5 mph NE16.9 kmh NE 14.0 mph22.5 kmh 29.62 in1003.0 mb - 0.00 in0.0 mm 0.00 in0.0 mm
05:15 AM 25.2°F-3.8°C 18.7°F-7.4°C 76% 9.1 mph E14.6 kmh E 16.0 mph25.7 kmh 29.62 in1003.0 mb - 0.00 in0.0 mm 0.00 in0.0 mm
05:30 AM 25.4°F-3.7°C 18.9°F-7.3°C 76% 14.7 mph NE23.7 kmh NE 17.0 mph27.4 kmh 29.61 in1002.7 mb - 0.00 in0.0 mm 0.00 in0.0 mm
05:45 AM 25.5°F-3.6°C 18.7°F-7.4°C 75% 10.5 mph NE16.9 kmh NE 30.0 mph48.3 kmh 29.61 in1002.7 mb - 0.00 in0.0 mm 0.00 in0.0 mm
06:00 AM 25.6°F-3.6°C 18.8°F-7.3°C 75% 16.9 mph NE27.2 kmh NE 24.0 mph38.6 kmh 29.61 in1002.7 mb - 0.00 in0.0 mm 0.00 in0.0 mm
06:15 AM 25.6°F-3.6°C 19.1°F-7.2°C 76% 14.2 mph E22.9 kmh E 19.0 mph30.6 kmh 29.60 in1002.4 mb - 0.00 in0.0 mm 0.00 in0.0 mm
06:30 AM 25.5°F-3.6°C 19.0°F-7.2°C 76% 10.1 mph E16.3 kmh E 22.0 mph35.4 kmh 29.60 in1002.4 mb - 0.00 in0.0 mm 0.00 in0.0 mm
06:45 AM 25.5°F-3.6°C 19.0°F-7.2°C 76% 12.4 mph E20.0 kmh E 25.0 mph40.2 kmh 29.59 in1002.0 mb - 0.00 in0.0 mm 0.00 in0.0 mm
07:00 AM 25.5°F-3.6°C 19.3°F-7.1°C 77% 13.0 mph ESE20.9 kmh ESE 13.0 mph20.9 kmh 29.59 in1002.0 mb - 0.00 in0.0 mm 0.00 in0.0 mm
07:15 AM 25.5°F-3.6°C 19.3°F-7.1°C 77% 8.9 mph E14.3 kmh E 15.0 mph24.1 kmh 29.58 in1001.7 mb - 0.00 in0.0 mm 0.00 in0.0 mm
07:30 AM 25.4°F-3.7°C 19.5°F-6.9°C 78% 12.8 mph E20.6 kmh E 18.0 mph29.0 kmh 29.58 in1001.7 mb - 0.00 in0.0 mm 0.00 in0.0 mm
07:45 AM 25.3°F-3.7°C 19.4°F-7.0°C 78% 14.0 mph E22.5 kmh E 26.0 mph41.8 kmh 29.57 in1001.4 mb - 0.00 in0.0 mm 0.00 in0.0 mm
08:00 AM 25.3°F-3.7°C 19.7°F-6.8°C 79% 8.0 mph ENE12.9 kmh ENE 8.0 mph12.9 kmh 29.56 in1001.0 mb - 0.00 in0.0 mm 0.00 in0.0 mm
08:15 AM 25.4°F-3.7°C 19.8°F-6.8°C 79% 9.3 mph E15.0 kmh E 14.0 mph22.5 kmh 29.56 in1001.0 mb - 0.00 in0.0 mm 0.00 in0.0 mm
08:30 AM 25.5°F-3.6°C 19.9°F-6.7°C 79% 12.5 mph ESE20.1 kmh ESE 22.0 mph35.4 kmh 29.56 in1001.0 mb - 0.00 in0.0 mm 0.00 in0.0 mm
08:45 AM 25.6°F-3.6°C 20.0°F-6.7°C 79% 15.3 mph E24.6 kmh E 22.0 mph35.4 kmh 29.55 in1000.7 mb - 0.00 in0.0 mm 0.00 in0.0 mm
09:00 AM 25.7°F-3.5°C 20.1°F-6.6°C 79% 16.2 mph ENE26.1 kmh ENE 16.0 mph25.7 kmh 29.55 in1000.7 mb - 0.00 in0.0 mm 0.00 in0.0 mm
09:15 AM 25.8°F-3.4°C 19.9°F-6.7°C 78% 18.0 mph ENE29.0 kmh ENE 28.0 mph45.1 kmh 29.54 in1000.3 mb - 0.00 in0.0 mm 0.00 in0.0 mm
09:30 AM 25.9°F-3.4°C 20.0°F-6.7°C 78% 14.6 mph ENE23.5 kmh ENE 18.0 mph29.0 kmh 29.54 in1000.3 mb - 0.00 in0.0 mm 0.00 in0.0 mm
09:45 AM 26.0°F-3.3°C 20.1°F-6.6°C 78% 13.9 mph ENE22.4 kmh ENE 22.0 mph35.4 kmh 29.53 in1000.0 mb - 0.00 in0.0 mm 0.00 in0.0 mm
10:00 AM 26.0°F-3.3°C 20.1°F-6.6°C 78% 16.2 mph NE26.1 kmh NE 25.0 mph40.2 kmh 29.52 in999.7 mb - 0.00 in0.0 mm 0.00 in0.0 mm
10:15 AM 26.0°F-3.3°C 20.1°F-6.6°C 78% 12.6 mph ENE20.3 kmh ENE 16.0 mph25.7 kmh 29.51 in999.3 mb - 0.00 in0.0 mm 0.00 in0.0 mm
10:30 AM 26.0°F-3.3°C 20.1°F-6.6°C 78% 14.9 mph ENE24.0 kmh ENE 21.0 mph33.8 kmh 29.51 in999.3 mb - 0.00 in0.0 mm 0.00 in0.0 mm
10:45 AM 26.5°F-3.1°C 21.2°F-6.0°C 80% 9.1 mph E14.6 kmh E 14.0 mph22.5 kmh 29.51 in999.3 mb - 0.00 in0.0 mm 0.00 in0.0 mm
11:00 AM 26.6°F-3.0°C 21.3°F-5.9°C 80% 14.0 mph E22.5 kmh E 27.0 mph43.5 kmh 29.50 in999.0 mb - 0.00 in0.0 mm 0.00 in0.0 mm
11:15 AM 26.7°F-2.9°C 21.4°F-5.9°C 80% 7.9 mph ENE12.7 kmh ENE 17.0 mph27.4 kmh 29.50 in999.0 mb - 0.00 in0.0 mm 0.00 in0.0 mm
11:30 AM 26.8°F-2.9°C 21.8°F-5.7°C 81% 14.6 mph ENE23.5 kmh ENE 18.0 mph29.0 kmh 29.49 in998.6 mb - 0.00 in0.0 mm 0.00 in0.0 mm
11:45 AM 26.8°F-2.9°C 21.8°F-5.7°C 81% 10.2 mph E16.4 kmh E 14.0 mph22.5 kmh 29.49 in998.6 mb - 0.00 in0.0 mm 0.00 in0.0 mm
12:00 PM 26.9°F-2.8°C 22.1°F-5.5°C 82% 13.2 mph ENE21.2 kmh ENE 24.0 mph38.6 kmh 29.48 in998.3 mb - 0.00 in0.0 mm 0.00 in0.0 mm
12:15 PM 26.8°F-2.9°C 22.0°F-5.6°C 82% 12.1 mph E19.5 kmh E 22.0 mph35.4 kmh 29.47 in998.0 mb - 0.00 in0.0 mm 0.00 in0.0 mm
12:30 PM 26.9°F-2.8°C 22.1°F-5.5°C 82% 9.6 mph NE15.4 kmh NE 22.0 mph35.4 kmh 29.46 in997.6 mb - 0.00 in0.0 mm 0.00 in0.0 mm
12:45 PM 27.0°F-2.8°C 22.3°F-5.4°C 82% 13.6 mph E21.9 kmh E 17.0 mph27.4 kmh 29.45 in997.3 mb - 0.00 in0.0 mm 0.00 in0.0 mm
01:00 PM 27.3°F-2.6°C 22.5°F-5.3°C 82% 11.7 mph E18.8 kmh E 23.0 mph37.0 kmh 29.44 in997.0 mb - 0.00 in0.0 mm 0.00 in0.0 mm
01:15 PM 27.5°F-2.5°C 22.7°F-5.2°C 82% 12.4 mph ESE20.0 kmh ESE 22.0 mph35.4 kmh 29.44 in997.0 mb - 0.00 in0.0 mm 0.00 in0.0 mm
01:30 PM 27.7°F-2.4°C 22.9°F-5.1°C 82% 12.8 mph E20.6 kmh E 23.0 mph37.0 kmh 29.43 in996.6 mb - 0.00 in0.0 mm 0.00 in0.0 mm
01:45 PM 27.8°F-2.3°C 22.7°F-5.2°C 81% 14.6 mph E23.5 kmh E 22.0 mph35.4 kmh 29.42 in996.3 mb - 0.00 in0.0 mm 0.00 in0.0 mm
02:00 PM 27.8°F-2.3°C 23.1°F-4.9°C 82% 13.6 mph ESE21.9 kmh ESE 17.0 mph27.4 kmh 29.41 in995.9 mb - 0.00 in0.0 mm 0.00 in0.0 mm
02:15 PM 27.8°F-2.3°C 23.3°F-4.8°C 83% 13.1 mph E21.1 kmh E 18.0 mph29.0 kmh 29.41 in995.9 mb - 0.00 in0.0 mm 0.00 in0.0 mm
02:30 PM 27.4°F-2.6°C 23.8°F-4.6°C 86% 13.0 mph E20.9 kmh E 22.0 mph35.4 kmh 29.40 in995.6 mb - 0.00 in0.0 mm 0.00 in0.0 mm
02:45 PM 27.1°F-2.7°C 24.0°F-4.4°C 88% 12.2 mph SE19.6 kmh SE 19.0 mph30.6 kmh 29.39 in995.3 mb - 0.00 in0.0 mm 0.00 in0.0 mm
03:00 PM 27.1°F-2.7°C 24.6°F-4.1°C 90% 11.4 mph NE18.3 kmh NE 20.6 mph33.2 kmh 29.39 in995.3 mb - 0.00 in0.0 mm 0.00 in0.0 mm
03:15 PM 27.0°F-2.8°C 24.5°F-4.2°C 90% 9.7 mph ENE15.6 kmh ENE 19.0 mph30.6 kmh 29.38 in994.9 mb - 0.00 in0.0 mm 0.00 in0.0 mm
03:30 PM 27.0°F-2.8°C 24.7°F-4.1°C 91% 14.1 mph E22.7 kmh E 23.0 mph37.0 kmh 29.36 in994.2 mb - 0.00 in0.0 mm 0.00 in0.0 mm
03:45 PM 27.0°F-2.8°C 25.0°F-3.9°C 92% 14.4 mph ESE23.2 kmh ESE 25.0 mph40.2 kmh 29.36 in994.2 mb - 0.00 in0.0 mm 0.00 in0.0 mm
04:00 PM 27.1°F-2.7°C 25.1°F-3.8°C 92% 12.9 mph E20.8 kmh E 18.0 mph29.0 kmh 29.35 in993.9 mb - 0.00 in0.0 mm 0.00 in0.0 mm
04:15 PM 27.2°F-2.7°C 25.4°F-3.7°C 93% 16.1 mph E25.9 kmh E 24.0 mph38.6 kmh 29.35 in993.9 mb - 0.00 in0.0 mm 0.00 in0.0 mm
04:30 PM 27.2°F-2.7°C 25.5°F-3.6°C 93% 10.9 mph E17.5 kmh E 13.0 mph20.9 kmh 29.35 in993.9 mb - 0.00 in0.0 mm 0.00 in0.0 mm
04:45 PM 27.3°F-2.6°C 25.5°F-3.6°C 93% 10.0 mph E16.1 kmh E 19.0 mph30.6 kmh 29.34 in993.6 mb - 0.00 in0.0 mm 0.00 in0.0 mm
05:00 PM 27.3°F-2.6°C 25.6°F-3.6°C 93% 11.4 mph E18.3 kmh E 17.0 mph27.4 kmh 29.34 in993.6 mb - 0.00 in0.0 mm 0.00 in0.0 mm
05:15 PM 27.4°F-2.6°C 25.6°F-3.6°C 93% 13.1 mph ENE21.1 kmh ENE 24.0 mph38.6 kmh 29.34 in993.6 mb - 0.00 in0.0 mm 0.00 in0.0 mm
05:30 PM 27.5°F-2.5°C 26.0°F-3.3°C 94% 15.3 mph ENE24.6 kmh ENE 16.0 mph25.7 kmh 29.34 in993.6 mb - 0.00 in0.0 mm 0.00 in0.0 mm
05:45 PM 27.6°F-2.4°C 26.1°F-3.3°C 94% 10.8 mph NE17.4 kmh NE 21.0 mph33.8 kmh 29.34 in993.6 mb - 0.00 in0.0 mm 0.00 in0.0 mm
06:00 PM 27.7°F-2.4°C 26.2°F-3.2°C 94% 13.8 mph E22.2 kmh E 17.0 mph27.4 kmh 29.34 in993.6 mb - 0.00 in0.0 mm 0.00 in0.0 mm
06:15 PM 27.9°F-2.3°C 26.4°F-3.1°C 94% 12.2 mph E19.6 kmh E 22.0 mph35.4 kmh 29.34 in993.6 mb - 0.00 in0.0 mm 0.00 in0.0 mm
06:30 PM 28.1°F-2.2°C 26.6°F-3.0°C 94% 10.8 mph ENE17.4 kmh ENE 15.0 mph24.1 kmh 29.34 in993.6 mb - 0.00 in0.0 mm 0.00 in0.0 mm
06:45 PM 28.3°F-2.1°C 26.8°F-2.9°C 94% 9.7 mph ENE15.6 kmh ENE 18.0 mph29.0 kmh 29.33 in993.2 mb - 0.00 in0.0 mm 0.00 in0.0 mm
07:00 PM 28.5°F-1.9°C 27.0°F-2.8°C 94% 13.3 mph ENE21.4 kmh ENE 16.0 mph25.7 kmh 29.33 in993.2 mb - 0.00 in0.0 mm 0.00 in0.0 mm
07:15 PM 28.6°F-1.9°C 27.1°F-2.7°C 94% 11.8 mph ENE19.0 kmh ENE 22.0 mph35.4 kmh 29.34 in993.6 mb - 0.00 in0.0 mm 0.00 in0.0 mm
07:30 PM 28.8°F-1.8°C 27.3°F-2.6°C 94% 11.3 mph E18.2 kmh E 16.0 mph25.7 kmh 29.33 in993.2 mb - 0.00 in0.0 mm 0.00 in0.0 mm
07:45 PM 29.0°F-1.7°C 27.5°F-2.5°C 94% 9.0 mph NE14.5 kmh NE 9.0 mph14.5 kmh 29.32 in992.9 mb - 0.00 in0.0 mm 0.00 in0.0 mm
08:00 PM 29.2°F-1.6°C 27.7°F-2.4°C 94% 10.4 mph NE16.7 kmh NE 15.0 mph24.1 kmh 29.32 in992.9 mb - 0.00 in0.0 mm 0.00 in0.0 mm
08:15 PM 29.4°F-1.4°C 27.9°F-2.3°C 94% 10.1 mph NE16.3 kmh NE 16.0 mph25.7 kmh 29.32 in992.9 mb - 0.00 in0.0 mm 0.00 in0.0 mm
08:30 PM 29.7°F-1.3°C 28.2°F-2.1°C 94% 13.7 mph ENE22.0 kmh ENE 16.0 mph25.7 kmh 29.32 in992.9 mb - 0.00 in0.0 mm 0.00 in0.0 mm
08:45 PM 29.8°F-1.2°C 28.3°F-2.1°C 94% 10.9 mph E17.5 kmh E 19.0 mph30.6 kmh 29.31 in992.6 mb - 0.00 in0.0 mm 0.00 in0.0 mm
09:00 PM 30.0°F-1.1°C 28.5°F-1.9°C 94% 11.3 mph E18.2 kmh E 22.0 mph35.4 kmh 29.31 in992.6 mb - 0.00 in0.0 mm 0.00 in0.0 mm
09:15 PM 30.2°F-1.0°C 28.7°F-1.8°C 94% 13.0 mph SE20.9 kmh SE 21.0 mph33.8 kmh 29.30 in992.2 mb - 0.00 in0.0 mm 0.00 in0.0 mm
09:30 PM 30.3°F-0.9°C 28.8°F-1.8°C 94% 15.6 mph E25.1 kmh E 26.0 mph41.8 kmh 29.30 in992.2 mb - 0.00 in0.0 mm 0.00 in0.0 mm
09:45 PM 30.4°F-0.9°C 28.9°F-1.7°C 94% 13.6 mph NE21.9 kmh NE 22.0 mph35.4 kmh 29.29 in991.9 mb - 0.00 in0.0 mm 0.00 in0.0 mm
10:00 PM 30.5°F-0.8°C 29.0°F-1.7°C 94% 12.3 mph E19.8 kmh E 19.0 mph30.6 kmh 29.29 in991.9 mb - 0.00 in0.0 mm 0.00 in0.0 mm
10:15 PM 30.4°F-0.9°C 28.9°F-1.7°C 94% 12.1 mph E19.5 kmh E 19.0 mph30.6 kmh 29.29 in991.9 mb - 0.00 in0.0 mm 0.00 in0.0 mm
10:30 PM 30.5°F-0.8°C 29.0°F-1.7°C 94% 7.8 mph ENE12.6 kmh ENE 17.0 mph27.4 kmh 29.29 in991.9 mb - 0.00 in0.0 mm 0.00 in0.0 mm
10:45 PM 30.6°F-0.8°C 29.1°F-1.6°C 94% 12.8 mph ENE20.6 kmh ENE 21.0 mph33.8 kmh 29.29 in991.9 mb - 0.00 in0.0 mm 0.00 in0.0 mm
11:00 PM 30.6°F-0.8°C 29.1°F-1.6°C 94% 10.2 mph ENE16.4 kmh ENE 14.0 mph22.5 kmh 29.29 in991.9 mb - 0.00 in0.0 mm 0.00 in0.0 mm
11:15 PM 30.7°F-0.7°C 29.2°F-1.6°C 94% 8.2 mph ENE13.2 kmh ENE 14.0 mph22.5 kmh 29.29 in991.9 mb - 0.00 in0.0 mm 0.00 in0.0 mm
11:30 PM 30.7°F-0.7°C 28.9°F-1.7°C 93% 11.2 mph ENE18.0 kmh ENE 16.0 mph25.7 kmh 29.28 in991.5 mb - 0.00 in0.0 mm 0.00 in0.0 mm
11:45 PM 30.8°F-0.7°C 29.0°F-1.7°C 93% 12.6 mph E20.3 kmh E 20.0 mph32.2 kmh 29.28 in991.5 mb - 0.00 in0.0 mm 0.00 in0.0 mm